Terminal Aerodrome Forecast
Issued by NWS

Home | Current Version | Previous Version | Graphics & Text | Print | Product List | Glossary On
Versions: 1 2 3 4 5 6 7 8 9 10 11 12 13 14 15 16 17 18 19 20 21 22 23
000
FTUS43 KICT 011607 AAA
TAFCNU
TAF AMD
KCNU 011607Z 0116/0212 16012KT P6SM SCT100 BKN200
     FM020000 20014G19KT P6SM VCTS SCT080CB BKN150
     FM020900 29011KT P6SM SCT080 BKN150=

USA.gov is the U.S. government's official web portal to all federal, state and local government web resources and services.